DucheSS Of Scandinavia — OUZI2 — position and weather

sailwx.info

Track history (hours):
 
Tides and Currents Weather Stations Pressure Air Temp Water Temp Dewpoint Dewpoint Depression Visibility Wind Speed Wind Dir Waves Ship Positions

DucheSS Of Scandinavia

Operator: DFDS A/S

Last reported at 2014-Dec-22 10:33 UTC. Time now 2014-Dec-22 10:36 UTC.
Position N 59°01' E 010°21'.

Length 134 m; draft 5.2 m.

Type: Passenger vessel. MMSI: 219002929.

Date/timePositionNaut miles runAvg speedWind from/ knotsBaromVisibWave heightAir tempDewpointWater temp
2014-Dec-22 10:33N 59°01' E 010°21'1514.9
2014-Dec-22 09:33N 59°01' E 010°49'1210.7
2014-Dec-22 08:26N 58°56' E 011°10'8 9.5
2014-Dec-22 07:33N 59°00' E 010°56'1616.0
2014-Dec-22 06:33N 59°01' E 010°25'9 9.1
2014-Dec-22 05:33N 59°08' E 010°14'1 1.4
2014-Dec-22 04:33N 59°06' E 010°14'0 0.0
2014-Dec-22 03:33N 59°06' E 010°14'0 0.0
2014-Dec-22 02:33N 59°06' E 010°14'0 0.0
2014-Dec-22 01:33N 59°06' E 010°14'0 0.0
2014-Dec-22 00:33N 59°06' E 010°14'0 0.0
2014-Dec-21 23:33N 59°06' E 010°14'0 0.0
2014-Dec-21 22:31N 59°06' E 010°14'0 0.0
2014-Dec-21 21:33N 59°06' E 010°14'0 0.0
2014-Dec-21 20:33N 59°06' E 010°14'0 0.0
2014-Dec-21 19:32N 59°06' E 010°14'0 0.0
2014-Dec-21 18:33N 59°06' E 010°14'1 1.4
2014-Dec-21 17:32N 59°08' E 010°14'1010.0
2014-Dec-21 16:33N 59°01' E 010°27'1515.3
2014-Dec-21 15:33N 59°00' E 010°57'6 4.0
2014-Dec-21 14:06N 58°56' E 011°05'915.9
2014-Dec-21 13:33N 59°01' E 010°51'1616.3
2014-Dec-21 12:33N 59°01' E 010°19'7 7.1
2014-Dec-21 11:33N 59°08' E 010°14'7 6.5
2014-Dec-21 10:33N 59°01' E 010°18'1515.4
2014-Dec-21 09:34N 59°02' E 010°48'4 1.9
2014-Dec-21 07:33N 59°00' E 010°55'1616.4
2014-Dec-21 06:33N 59°01' E 010°23'8 8.3
2014-Dec-21 05:33N 59°08' E 010°14'1 1.4
2014-Dec-21 04:33N 59°06' E 010°14'0 0.0
2014-Dec-21 03:32N 59°06' E 010°14'0 0.0
2014-Dec-21 02:27N 59°06' E 010°14'0 0.0
2014-Dec-21 01:33N 59°06' E 010°14'0 0.0
2014-Dec-21 00:28N 59°06' E 010°14'0 0.0
2014-Dec-20 23:29N 59°06' E 010°14'0 0.0
2014-Dec-20 22:29N 59°06' E 010°14'0 0.0
2014-Dec-20 21:30N 59°06' E 010°14'0 0.0
2014-Dec-20 20:31N 59°06' E 010°14'0 0.0
2014-Dec-20 19:25N 59°06' E 010°14'0 0.0
2014-Dec-20 18:28N 59°06' E 010°14'1 1.6
2014-Dec-20 17:33N 59°08' E 010°14'9 8.9
2014-Dec-20 16:33N 59°01' E 010°25'1615.7
2014-Dec-20 15:33N 59°00' E 010°56'3 1.6
2014-Dec-20 13:33N 59°01' E 010°49'1616.1
2014-Dec-20 12:33N 59°01' E 010°18'7 6.6
2014-Dec-20 11:33N 59°08' E 010°14'7 7.0
2014-Dec-20 10:33N 59°01' E 010°19'1616.0
2014-Dec-20 09:33N 59°01' E 010°51'11 9.8
2014-Dec-20 08:24N 58°56' E 011°10'1113.5
2014-Dec-20 07:33N 59°01' E 010°50'1716.7
2014-Dec-20 06:33N 59°01' E 010°18'7 6.7
2014-Dec-20 05:33N 59°08' E 010°14'1 0.7
2014-Dec-20 03:28N 59°06' E 010°14'0 0.0
2014-Dec-20 02:22N 59°06' E 010°14'0 0.0
2014-Dec-20 01:31N 59°06' E 010°14'0 0.0
2014-Dec-20 00:32N 59°06' E 010°14'0 0.0
2014-Dec-19 23:15N 59°06' E 010°14'0 0.0
2014-Dec-19 22:28N 59°06' E 010°14'0 0.0
2014-Dec-19 20:13N 59°06' E 010°14'0 0.0
2014-Dec-19 18:24N 59°06' E 010°14'1 0.8
2014-Dec-19 17:27N 59°07' E 010°14'1112.4
2014-Dec-19 16:33N 58°59' E 010°29'1414.3
2014-Dec-19 15:33N 59°00' E 010°56'6 4.3
2014-Dec-19 14:06N 58°56' E 011°05'916.1
2014-Dec-19 13:33N 59°01' E 010°51'1616.3
2014-Dec-19 12:33N 59°01' E 010°19'7 7.0
2014-Dec-19 11:33N 59°08' E 010°14'7 7.2
2014-Dec-19 10:33N 59°01' E 010°20'1515.1
2014-Dec-19 09:33N 59°01' E 010°50'1211.7
2014-Dec-19 08:33N 58°56' E 011°10'8 7.9
2014-Dec-19 07:33N 58°60' E 010°57'1616.1
2014-Dec-19 06:33N 59°01' E 010°26'9 9.4
2014-Dec-19 05:34N 59°08' E 010°14'1 1.4
2014-Dec-19 04:33N 59°06' E 010°14'0 0.0
2014-Dec-19 03:30N 59°06' E 010°14'0 0.0
2014-Dec-19 02:25N 59°06' E 010°14'0 0.0
2014-Dec-19 01:26N 59°06' E 010°14'0 0.0
2014-Dec-19 00:29N 59°06' E 010°14'0 0.0
2014-Dec-18 23:33N 59°06' E 010°14'0 0.0
2014-Dec-18 22:28N 59°06' E 010°14'0 0.0
2014-Dec-18 21:05N 59°06' E 010°14'0 0.0
2014-Dec-18 20:23N 59°06' E 010°14'0 0.0
2014-Dec-18 19:30N 59°06' E 010°14'0 0.0
2014-Dec-18 18:17N 59°06' E 010°14'1 2.0
2014-Dec-18 17:33N 59°08' E 010°14'9 9.2
2014-Dec-18 16:33N 59°01' E 010°26'1515.3
2014-Dec-18 15:33N 59°00' E 010°56'9 7.6
2014-Dec-18 14:24N 58°56' E 011°10'1113.3
2014-Dec-18 13:33N 59°01' E 010°50'1616.3
2014-Dec-18 12:33N 59°01' E 010°19'7 6.7
2014-Dec-18 11:32N 59°08' E 010°14'7 6.8
2014-Dec-18 10:33N 59°01' E 010°19'1514.5
2014-Dec-18 09:33N 59°02' E 010°47'1311.2
2014-Dec-18 08:22N 58°56' E 011°10'910.4
2014-Dec-18 07:32N 59°00' E 010°56'1616.0
2014-Dec-18 06:33N 59°01' E 010°25'9 9.0
2014-Dec-18 05:33N 59°08' E 010°14'1 1.5
2014-Dec-18 04:33N 59°06' E 010°14'0 0.0
2014-Dec-18 03:08N 59°06' E 010°14'0 0.0
2014-Dec-18 02:06N 59°06' E 010°14'0 0.0
2014-Dec-18 00:04N 59°06' E 010°14'0 0.0
2014-Dec-17 21:21N 59°06' E 010°14'0 0.0
2014-Dec-17 20:22N 59°06' E 010°14'0 0.0
2014-Dec-17 19:16N 59°06' E 010°14'0 0.0
2014-Dec-17 18:26N 59°06' E 010°14'1 1.6
2014-Dec-17 17:33N 59°08' E 010°14'9 9.1
2014-Dec-17 16:33N 59°01' E 010°25'1615.8
2014-Dec-17 15:33N 59°00' E 010°56'7 4.7
2014-Dec-17 14:10N 58°56' E 011°06'1015.6
2014-Dec-17 13:33N 59°01' E 010°50'1615.9
2014-Dec-17 12:33N 59°01' E 010°19'7 7.0
2014-Dec-17 11:33N 59°08' E 010°14'7 6.5
2014-Dec-17 10:33N 59°01' E 010°18'1616.0
2014-Dec-17 09:33N 59°01' E 010°49'1211.7
2014-Dec-17 08:31N 58°56' E 011°10'8 8.7
2014-Dec-17 07:33N 59°00' E 010°56'1616.1
2014-Dec-17 06:33N 59°01' E 010°25'9 9.0
2014-Dec-17 05:33N 59°08' E 010°14'1 1.4
2014-Dec-17 04:33N 59°06' E 010°14'0 0.0
2014-Dec-17 03:31N 59°06' E 010°14'0 0.0
2014-Dec-17 02:26N 59°06' E 010°14'0 0.0
2014-Dec-17 01:32N 59°06' E 010°14'0 0.0
2014-Dec-17 00:33N 59°06' E 010°14'0 0.0
2014-Dec-16 23:19N 59°06' E 010°14'0 0.0
2014-Dec-16 22:28N 59°06' E 010°14'0 0.0
2014-Dec-16 21:29N 59°06' E 010°14'0 0.0
2014-Dec-16 20:18N 59°06' E 010°14'0 0.0
2014-Dec-16 19:30N 59°06' E 010°14'0 0.0
2014-Dec-16 18:31N 59°06' E 010°14'1 1.5
2014-Dec-16 17:33N 59°08' E 010°14'9 8.6
2014-Dec-16 16:33N 59°01' E 010°24'1615.6
2014-Dec-16 15:33N 59°01' E 010°54'7 5.1
2014-Dec-16 14:11N 58°56' E 011°05'1015.6
2014-Dec-16 13:33N 59°01' E 010°49'1616.0
2014-Dec-16 12:33N 59°01' E 010°18'7 6.7
2014-Dec-16 11:33N 59°08' E 010°14'8 8.2
2014-Dec-16 10:33N 59°00' E 010°22'1313.3
2014-Dec-16 09:33N 59°02' E 010°47'5 2.4
2014-Dec-16 07:33N 59°00' E 010°56'1616.0
2014-Dec-16 06:33N 58°60' E 010°25'10 9.5
2014-Dec-16 05:33N 59°08' E 010°14'1 1.4
2014-Dec-16 04:29N 59°06' E 010°14'0 0.0
2014-Dec-16 03:30N 59°06' E 010°14'0 0.0
2014-Dec-16 02:30N 59°06' E 010°14'0 0.0
2014-Dec-16 01:07N 59°06' E 010°14'0 0.0
2014-Dec-15 23:32N 59°06' E 010°14'0 0.0
2014-Dec-15 22:33N 59°06' E 010°14'0 0.0
2014-Dec-15 21:28N 59°06' E 010°14'0 0.0
2014-Dec-15 20:28N 59°06' E 010°14'0 0.0
2014-Dec-15 19:29N 59°06' E 010°14'0 0.0
2014-Dec-15 18:30N 59°06' E 010°14'1 1.5
2014-Dec-15 17:33N 59°08' E 010°14'10 9.8
2014-Dec-15 16:33N 58°60' E 010°25'1515.1
2014-Dec-15 15:33N 59°01' E 010°54'9 9.4
2014-Dec-15 14:33N 58°56' E 011°10'1212.2
2014-Dec-15 13:33N 59°01' E 010°49'1615.9
2014-Dec-15 12:33N 59°01' E 010°18'7 7.1
2014-Dec-15 11:33N 59°08' E 010°14'7 7.2
2014-Dec-15 10:33N 59°01' E 010°18'1514.7
2014-Dec-15 09:33N 59°02' E 010°47'1413.5
2014-Dec-15 08:33N 58°56' E 011°10'9 8.6
2014-Dec-15 07:33N 59°00' E 010°56'1615.5
2014-Dec-15 06:33N 59°01' E 010°26'9 9.3
2014-Dec-15 05:34N 59°08' E 010°14'1 1.4
2014-Dec-15 04:33N 59°06' E 010°14'0 0.0
2014-Dec-15 03:31N 59°06' E 010°14'0 0.0
2014-Dec-15 02:28N 59°06' E 010°14'0 0.0
2014-Dec-15 01:32N 59°06' E 010°14'0 0.0
2014-Dec-15 00:30N 59°06' E 010°14'0 0.0
2014-Dec-14 23:33N 59°06' E 010°14'0 0.0
2014-Dec-14 22:31N 59°06' E 010°14'0 0.0
2014-Dec-14 21:32N 59°06' E 010°14'0 0.0
2014-Dec-14 20:29N 59°06' E 010°14'0 0.0
2014-Dec-14 19:30N 59°06' E 010°14'0 0.0
2014-Dec-14 18:33N 59°06' E 010°14'1 1.2
2014-Dec-14 17:32N 59°07' E 010°14'1111.0
2014-Dec-14 16:34N 58°60' E 010°28'1413.6
2014-Dec-14 15:33N 59°01' E 010°54'10 9.5
2014-Dec-14 14:33N 58°56' E 011°10'1211.9
2014-Dec-14 13:33N 59°01' E 010°50'1616.3
2014-Dec-14 12:33N 59°01' E 010°18'7 6.7
2014-Dec-14 11:33N 59°08' E 010°14'7 6.6
2014-Dec-14 10:33N 59°01' E 010°18'1514.8
2014-Dec-14 09:33N 59°02' E 010°47'1313.2
2014-Dec-14 08:33N 58°56' E 011°10'8 7.9
2014-Dec-14 07:33N 59°00' E 010°57'1716.5
2014-Dec-14 06:33N 59°01' E 010°25'9 9.0
2014-Dec-14 05:33N 59°08' E 010°14'0 0.0
2014-Dec-14 04:33N 59°08' E 010°14'0 0.0
2014-Dec-14 03:33N 59°08' E 010°14'0 0.0
2014-Dec-14 02:33N 59°08' E 010°14'0 0.0
2014-Dec-14 01:33N 59°08' E 010°14'0 0.0
2014-Dec-14 00:33N 59°08' E 010°14'0 0.1
2014-Dec-13 23:31N 59°08' E 010°14'9 9.7
2014-Dec-13 22:33N 59°01' E 010°26'1515.0
2014-Dec-13 21:33N 59°00' E 010°55'9 8.8
2014-Dec-13 20:33N 58°56' E 011°10'1312.8
2014-Dec-13 19:33N 59°02' E 010°48'1716.5
2014-Dec-13 18:33N 59°02' E 010°16'6 6.0
2014-Dec-13 17:33N 59°08' E 010°14'9 9.2
2014-Dec-13 16:33N 59°01' E 010°26'1615.7
2014-Dec-13 15:33N 59°00' E 010°56'8 8.4
2014-Dec-13 14:33N 58°56' E 011°10'1211.6
2014-Dec-13 13:33N 59°01' E 010°50'1615.9
2014-Dec-13 12:33N 59°01' E 010°19'7 7.1
2014-Dec-13 11:33N 59°08' E 010°14'7 7.4
2014-Dec-13 10:33N 59°01' E 010°21'1716.6
2014-Dec-13 09:33N 59°01' E 010°53'1010.0
2014-Dec-13 08:33N 58°56' E 011°10'1010.1
2014-Dec-13 07:33N 59°01' E 010°53'1615.8
2014-Dec-13 06:33N 59°01' E 010°22'8 8.0
2014-Dec-13 05:33N 59°08' E 010°14'0 0.0
2014-Dec-13 04:33N 59°08' E 010°14'0 0.0
2014-Dec-13 03:33N 59°08' E 010°14'0 0.0
2014-Dec-13 02:33N 59°08' E 010°14'0 0.0
2014-Dec-13 01:33N 59°08' E 010°14'0 0.0
2014-Dec-13 00:33N 59°08' E 010°14'0 0.4
2014-Dec-12 23:27N 59°07' E 010°14'910.1
2014-Dec-12 22:33N 59°01' E 010°26'1616.1
2014-Dec-12 21:33N 59°00' E 010°57'8 7.8
2014-Dec-12 20:33N 58°56' E 011°10'1212.4
2014-Dec-12 19:34N 59°01' E 010°49'1615.8
2014-Dec-12 18:33N 59°01' E 010°18'7 6.7
2014-Dec-12 17:33N 59°08' E 010°14'9 9.1
2014-Dec-12 16:33N 59°01' E 010°26'1615.9
2014-Dec-12 15:33N 59°00' E 010°56'8 8.3
2014-Dec-12 14:33N 58°56' E 011°10'1212.5
2014-Dec-12 13:33N 59°02' E 010°49'1616.0
2014-Dec-12 12:33N 59°01' E 010°18'7 6.6
2014-Dec-12 11:33N 59°08' E 010°14'7 6.7
2014-Dec-12 10:33N 59°01' E 010°17'  
Track history (hours):
 
Tides and Currents Weather Stations Pressure Air Temp Water Temp Dewpoint Dewpoint Depression Visibility Wind Speed Wind Dir Waves Ship Positions

DucheSS Of Scandinavia

Operator: DFDS A/S

Last reported at 2014-Dec-22 10:33 UTC. Time now 2014-Dec-22 10:36 UTC.
Position N 59°01' E 010°21'.

Length 134 m; draft 5.2 m.

Type: Passenger vessel. MMSI: 219002929.

Date/timePositionNaut miles runAvg speedWind from/ knotsBaromVisibWave heightAir tempDewpointWater temp
2014-Dec-22 10:33N 59°01' E 010°21'1514.9
2014-Dec-22 09:33N 59°01' E 010°49'1210.7
2014-Dec-22 08:26N 58°56' E 011°10'8 9.5
2014-Dec-22 07:33N 59°00' E 010°56'1616.0
2014-Dec-22 06:33N 59°01' E 010°25'9 9.1
2014-Dec-22 05:33N 59°08' E 010°14'1 1.4
2014-Dec-22 04:33N 59°06' E 010°14'0 0.0
2014-Dec-22 03:33N 59°06' E 010°14'0 0.0
2014-Dec-22 02:33N 59°06' E 010°14'0 0.0
2014-Dec-22 01:33N 59°06' E 010°14'0 0.0
2014-Dec-22 00:33N 59°06' E 010°14'0 0.0
2014-Dec-21 23:33N 59°06' E 010°14'0 0.0
2014-Dec-21 22:31N 59°06' E 010°14'0 0.0
2014-Dec-21 21:33N 59°06' E 010°14'0 0.0
2014-Dec-21 20:33N 59°06' E 010°14'0 0.0
2014-Dec-21 19:32N 59°06' E 010°14'0 0.0
2014-Dec-21 18:33N 59°06' E 010°14'1 1.4
2014-Dec-21 17:32N 59°08' E 010°14'1010.0
2014-Dec-21 16:33N 59°01' E 010°27'1515.3
2014-Dec-21 15:33N 59°00' E 010°57'6 4.0
2014-Dec-21 14:06N 58°56' E 011°05'915.9
2014-Dec-21 13:33N 59°01' E 010°51'1616.3
2014-Dec-21 12:33N 59°01' E 010°19'7 7.1
2014-Dec-21 11:33N 59°08' E 010°14'7 6.5
2014-Dec-21 10:33N 59°01' E 010°18'1515.4
2014-Dec-21 09:34N 59°02' E 010°48'4 1.9
2014-Dec-21 07:33N 59°00' E 010°55'1616.4
2014-Dec-21 06:33N 59°01' E 010°23'8 8.3
2014-Dec-21 05:33N 59°08' E 010°14'1 1.4
2014-Dec-21 04:33N 59°06' E 010°14'0 0.0
2014-Dec-21 03:32N 59°06' E 010°14'0 0.0
2014-Dec-21 02:27N 59°06' E 010°14'0 0.0
2014-Dec-21 01:33N 59°06' E 010°14'0 0.0
2014-Dec-21 00:28N 59°06' E 010°14'0 0.0
2014-Dec-20 23:29N 59°06' E 010°14'0 0.0
2014-Dec-20 22:29N 59°06' E 010°14'0 0.0
2014-Dec-20 21:30N 59°06' E 010°14'0 0.0
2014-Dec-20 20:31N 59°06' E 010°14'0 0.0
2014-Dec-20 19:25N 59°06' E 010°14'0 0.0
2014-Dec-20 18:28N 59°06' E 010°14'1 1.6
2014-Dec-20 17:33N 59°08' E 010°14'9 8.9
2014-Dec-20 16:33N 59°01' E 010°25'1615.7
2014-Dec-20 15:33N 59°00' E 010°56'3 1.6
2014-Dec-20 13:33N 59°01' E 010°49'1616.1
2014-Dec-20 12:33N 59°01' E 010°18'7 6.6
2014-Dec-20 11:33N 59°08' E 010°14'7 7.0
2014-Dec-20 10:33N 59°01' E 010°19'1616.0
2014-Dec-20 09:33N 59°01' E 010°51'11 9.8
2014-Dec-20 08:24N 58°56' E 011°10'1113.5
2014-Dec-20 07:33N 59°01' E 010°50'1716.7
2014-Dec-20 06:33N 59°01' E 010°18'7 6.7
2014-Dec-20 05:33N 59°08' E 010°14'1 0.7
2014-Dec-20 03:28N 59°06' E 010°14'0 0.0
2014-Dec-20 02:22N 59°06' E 010°14'0 0.0
2014-Dec-20 01:31N 59°06' E 010°14'0 0.0
2014-Dec-20 00:32N 59°06' E 010°14'0 0.0
2014-Dec-19 23:15N 59°06' E 010°14'0 0.0
2014-Dec-19 22:28N 59°06' E 010°14'0 0.0
2014-Dec-19 20:13N 59°06' E 010°14'0 0.0
2014-Dec-19 18:24N 59°06' E 010°14'1 0.8
2014-Dec-19 17:27N 59°07' E 010°14'1112.4
2014-Dec-19 16:33N 58°59' E 010°29'1414.3
2014-Dec-19 15:33N 59°00' E 010°56'6 4.3
2014-Dec-19 14:06N 58°56' E 011°05'916.1
2014-Dec-19 13:33N 59°01' E 010°51'1616.3
2014-Dec-19 12:33N 59°01' E 010°19'7 7.0
2014-Dec-19 11:33N 59°08' E 010°14'7 7.2
2014-Dec-19 10:33N 59°01' E 010°20'1515.1
2014-Dec-19 09:33N 59°01' E 010°50'1211.7
2014-Dec-19 08:33N 58°56' E 011°10'8 7.9
2014-Dec-19 07:33N 58°60' E 010°57'1616.1
2014-Dec-19 06:33N 59°01' E 010°26'9 9.4
2014-Dec-19 05:34N 59°08' E 010°14'1 1.4
2014-Dec-19 04:33N 59°06' E 010°14'0 0.0
2014-Dec-19 03:30N 59°06' E 010°14'0 0.0
2014-Dec-19 02:25N 59°06' E 010°14'0 0.0
2014-Dec-19 01:26N 59°06' E 010°14'0 0.0
2014-Dec-19 00:29N 59°06' E 010°14'0 0.0
2014-Dec-18 23:33N 59°06' E 010°14'0 0.0
2014-Dec-18 22:28N 59°06' E 010°14'0 0.0
2014-Dec-18 21:05N 59°06' E 010°14'0 0.0
2014-Dec-18 20:23N 59°06' E 010°14'0 0.0
2014-Dec-18 19:30N 59°06' E 010°14'0 0.0
2014-Dec-18 18:17N 59°06' E 010°14'1 2.0
2014-Dec-18 17:33N 59°08' E 010°14'9 9.2
2014-Dec-18 16:33N 59°01' E 010°26'1515.3
2014-Dec-18 15:33N 59°00' E 010°56'9 7.6
2014-Dec-18 14:24N 58°56' E 011°10'1113.3
2014-Dec-18 13:33N 59°01' E 010°50'1616.3
2014-Dec-18 12:33N 59°01' E 010°19'7 6.7
2014-Dec-18 11:32N 59°08' E 010°14'7 6.8
2014-Dec-18 10:33N 59°01' E 010°19'1514.5
2014-Dec-18 09:33N 59°02' E 010°47'1311.2
2014-Dec-18 08:22N 58°56' E 011°10'910.4
2014-Dec-18 07:32N 59°00' E 010°56'1616.0
2014-Dec-18 06:33N 59°01' E 010°25'9 9.0
2014-Dec-18 05:33N 59°08' E 010°14'1 1.5
2014-Dec-18 04:33N 59°06' E 010°14'0 0.0
2014-Dec-18 03:08N 59°06' E 010°14'0 0.0
2014-Dec-18 02:06N 59°06' E 010°14'0 0.0
2014-Dec-18 00:04N 59°06' E 010°14'0 0.0
2014-Dec-17 21:21N 59°06' E 010°14'0 0.0
2014-Dec-17 20:22N 59°06' E 010°14'0 0.0
2014-Dec-17 19:16N 59°06' E 010°14'0 0.0
2014-Dec-17 18:26N 59°06' E 010°14'1 1.6
2014-Dec-17 17:33N 59°08' E 010°14'9 9.1
2014-Dec-17 16:33N 59°01' E 010°25'1615.8
2014-Dec-17 15:33N 59°00' E 010°56'7 4.7
2014-Dec-17 14:10N 58°56' E 011°06'1015.6
2014-Dec-17 13:33N 59°01' E 010°50'1615.9
2014-Dec-17 12:33N 59°01' E 010°19'7 7.0
2014-Dec-17 11:33N 59°08' E 010°14'7 6.5
2014-Dec-17 10:33N 59°01' E 010°18'1616.0
2014-Dec-17 09:33N 59°01' E 010°49'1211.7
2014-Dec-17 08:31N 58°56' E 011°10'8 8.7
2014-Dec-17 07:33N 59°00' E 010°56'1616.1
2014-Dec-17 06:33N 59°01' E 010°25'9 9.0
2014-Dec-17 05:33N 59°08' E 010°14'1 1.4
2014-Dec-17 04:33N 59°06' E 010°14'0 0.0
2014-Dec-17 03:31N 59°06' E 010°14'0 0.0
2014-Dec-17 02:26N 59°06' E 010°14'0 0.0
2014-Dec-17 01:32N 59°06' E 010°14'0 0.0
2014-Dec-17 00:33N 59°06' E 010°14'0 0.0
2014-Dec-16 23:19N 59°06' E 010°14'0 0.0
2014-Dec-16 22:28N 59°06' E 010°14'0 0.0
2014-Dec-16 21:29N 59°06' E 010°14'0 0.0
2014-Dec-16 20:18N 59°06' E 010°14'0 0.0
2014-Dec-16 19:30N 59°06' E 010°14'0 0.0
2014-Dec-16 18:31N 59°06' E 010°14'1 1.5
2014-Dec-16 17:33N 59°08' E 010°14'9 8.6
2014-Dec-16 16:33N 59°01' E 010°24'1615.6
2014-Dec-16 15:33N 59°01' E 010°54'7 5.1
2014-Dec-16 14:11N 58°56' E 011°05'1015.6
2014-Dec-16 13:33N 59°01' E 010°49'1616.0
2014-Dec-16 12:33N 59°01' E 010°18'7 6.7
2014-Dec-16 11:33N 59°08' E 010°14'8 8.2
2014-Dec-16 10:33N 59°00' E 010°22'1313.3
2014-Dec-16 09:33N 59°02' E 010°47'5 2.4
2014-Dec-16 07:33N 59°00' E 010°56'1616.0
2014-Dec-16 06:33N 58°60' E 010°25'10 9.5
2014-Dec-16 05:33N 59°08' E 010°14'1 1.4
2014-Dec-16 04:29N 59°06' E 010°14'0 0.0
2014-Dec-16 03:30N 59°06' E 010°14'0 0.0
2014-Dec-16 02:30N 59°06' E 010°14'0 0.0
2014-Dec-16 01:07N 59°06' E 010°14'0 0.0
2014-Dec-15 23:32N 59°06' E 010°14'0 0.0
2014-Dec-15 22:33N 59°06' E 010°14'0 0.0
2014-Dec-15 21:28N 59°06' E 010°14'0 0.0
2014-Dec-15 20:28N 59°06' E 010°14'0 0.0
2014-Dec-15 19:29N 59°06' E 010°14'0 0.0
2014-Dec-15 18:30N 59°06' E 010°14'1 1.5
2014-Dec-15 17:33N 59°08' E 010°14'10 9.8
2014-Dec-15 16:33N 58°60' E 010°25'1515.1
2014-Dec-15 15:33N 59°01' E 010°54'9 9.4
2014-Dec-15 14:33N 58°56' E 011°10'1212.2
2014-Dec-15 13:33N 59°01' E 010°49'1615.9
2014-Dec-15 12:33N 59°01' E 010°18'7 7.1
2014-Dec-15 11:33N 59°08' E 010°14'7 7.2
2014-Dec-15 10:33N 59°01' E 010°18'1514.7
2014-Dec-15 09:33N 59°02' E 010°47'1413.5
2014-Dec-15 08:33N 58°56' E 011°10'9 8.6
2014-Dec-15 07:33N 59°00' E 010°56'1615.5
2014-Dec-15 06:33N 59°01' E 010°26'9 9.3
2014-Dec-15 05:34N 59°08' E 010°14'1 1.4
2014-Dec-15 04:33N 59°06' E 010°14'0 0.0
2014-Dec-15 03:31N 59°06' E 010°14'0 0.0
2014-Dec-15 02:28N 59°06' E 010°14'0 0.0
2014-Dec-15 01:32N 59°06' E 010°14'0 0.0
2014-Dec-15 00:30N 59°06' E 010°14'0 0.0
2014-Dec-14 23:33N 59°06' E 010°14'0 0.0
2014-Dec-14 22:31N 59°06' E 010°14'0 0.0
2014-Dec-14 21:32N 59°06' E 010°14'0 0.0
2014-Dec-14 20:29N 59°06' E 010°14'0 0.0
2014-Dec-14 19:30N 59°06' E 010°14'0 0.0
2014-Dec-14 18:33N 59°06' E 010°14'1 1.2
2014-Dec-14 17:32N 59°07' E 010°14'1111.0
2014-Dec-14 16:34N 58°60' E 010°28'1413.6
2014-Dec-14 15:33N 59°01' E 010°54'10 9.5
2014-Dec-14 14:33N 58°56' E 011°10'1211.9
2014-Dec-14 13:33N 59°01' E 010°50'1616.3
2014-Dec-14 12:33N 59°01' E 010°18'7 6.7
2014-Dec-14 11:33N 59°08' E 010°14'7 6.6
2014-Dec-14 10:33N 59°01' E 010°18'1514.8
2014-Dec-14 09:33N 59°02' E 010°47'1313.2
2014-Dec-14 08:33N 58°56' E 011°10'8 7.9
2014-Dec-14 07:33N 59°00' E 010°57'1716.5
2014-Dec-14 06:33N 59°01' E 010°25'9 9.0
2014-Dec-14 05:33N 59°08' E 010°14'0 0.0
2014-Dec-14 04:33N 59°08' E 010°14'0 0.0
2014-Dec-14 03:33N 59°08' E 010°14'0 0.0
2014-Dec-14 02:33N 59°08' E 010°14'0 0.0
2014-Dec-14 01:33N 59°08' E 010°14'0 0.0
2014-Dec-14 00:33N 59°08' E 010°14'0 0.1
2014-Dec-13 23:31N 59°08' E 010°14'9 9.7
2014-Dec-13 22:33N 59°01' E 010°26'1515.0
2014-Dec-13 21:33N 59°00' E 010°55'9 8.8
2014-Dec-13 20:33N 58°56' E 011°10'1312.8
2014-Dec-13 19:33N 59°02' E 010°48'1716.5
2014-Dec-13 18:33N 59°02' E 010°16'6 6.0
2014-Dec-13 17:33N 59°08' E 010°14'9 9.2
2014-Dec-13 16:33N 59°01' E 010°26'1615.7
2014-Dec-13 15:33N 59°00' E 010°56'8 8.4
2014-Dec-13 14:33N 58°56' E 011°10'1211.6
2014-Dec-13 13:33N 59°01' E 010°50'1615.9
2014-Dec-13 12:33N 59°01' E 010°19'7 7.1
2014-Dec-13 11:33N 59°08' E 010°14'7 7.4
2014-Dec-13 10:33N 59°01' E 010°21'1716.6
2014-Dec-13 09:33N 59°01' E 010°53'1010.0
2014-Dec-13 08:33N 58°56' E 011°10'1010.1
2014-Dec-13 07:33N 59°01' E 010°53'1615.8
2014-Dec-13 06:33N 59°01' E 010°22'8 8.0
2014-Dec-13 05:33N 59°08' E 010°14'0 0.0
2014-Dec-13 04:33N 59°08' E 010°14'0 0.0
2014-Dec-13 03:33N 59°08' E 010°14'0 0.0
2014-Dec-13 02:33N 59°08' E 010°14'0 0.0
2014-Dec-13 01:33N 59°08' E 010°14'0 0.0
2014-Dec-13 00:33N 59°08' E 010°14'0 0.4
2014-Dec-12 23:27N 59°07' E 010°14'910.1
2014-Dec-12 22:33N 59°01' E 010°26'1616.1
2014-Dec-12 21:33N 59°00' E 010°57'8 7.8
2014-Dec-12 20:33N 58°56' E 011°10'1212.4
2014-Dec-12 19:34N 59°01' E 010°49'1615.8
2014-Dec-12 18:33N 59°01' E 010°18'7 6.7
2014-Dec-12 17:33N 59°08' E 010°14'9 9.1
2014-Dec-12 16:33N 59°01' E 010°26'1615.9
2014-Dec-12 15:33N 59°00' E 010°56'8 8.3
2014-Dec-12 14:33N 58°56' E 011°10'1212.5
2014-Dec-12 13:33N 59°02' E 010°49'1616.0
2014-Dec-12 12:33N 59°01' E 010°18'7 6.6
2014-Dec-12 11:33N 59°08' E 010°14'7 6.7
2014-Dec-12 10:33N 59°01' E 010°17'  

Dump ship's entire track history